Vienna, Austria
Current Conditions -  °F | °C
As of 6:50 AM on Tuesday 23 Dec 2014 (Local Time) from LOWW Reporting Station
Clear Clear  
Wind Chill: 52°   Ceiling: Unl
Heat Index: 52°   Visibility: 6mi
Dew Point: 37°   Wind: 16mph
Humidity: 58%   Direction: 280°W
Pressure: 30.09"   Gusts: NA
Location:  48.22°N, 16.37°E
Report Text: LOWW 230450Z 28014KT CAVOK 11/03 Q1019 NOSIG
Loading
Personal Weather Stations






























Interactive Weather Map New forecast layout! Learn more

10-Day Weather Forecast

Advertisements
Track Severe Weather on mobile